Time;durP1;ratioP1;P1;durP2;ratioP2;P2;SDS_P1;SDS_P2;PMS_P1;PMS_P2;Temp;Humidity;BMP_temperature;BMP_pressure;BME280_temperature;BME280_humidity;BME280_pressure;Samples;Min_cycle;Max_cycle;Signal;HPM_P1;HPM_P2
2023/09/22 00:00:15;;;;;;;0.08;0.08;;;;;;;20.73;60.31;98924.88;5311525;26;20380;-94
2023/09/22 00:02:52;;;;;;;0.00;0.00;;;;;;;20.63;60.31;98924.00;5315941;26;20075;-95
2023/09/22 00:05:37;;;;;;;0.55;0.55;;;;;;;20.68;60.31;98917.34;5312481;26;20071;-96
2023/09/22 00:08:26;;;;;;;0.50;0.40;;;;;;;20.70;60.31;98917.19;5313872;26;20052;-96
2023/09/22 00:18:24;;;;;;;1.08;0.40;;;;;;;20.54;60.30;98926.44;5255876;27;19976;-94
2023/09/22 00:20:54;;;;;;;0.00;0.00;;;;;;;20.51;60.30;98920.59;5226689;27;20837;-93
2023/09/22 00:23:32;;;;;;;;;;;;;;;;;;;;;
2023/09/22 00:31:07;;;;;;;;;;;;;;;;;;;;;
2023/09/22 00:33:52;;;;;;;;;;;;;;;;;;;;;
2023/09/22 00:36:56;;;;;;;;;;;;;;;;;;;;;
2023/09/22 00:39:35;;;;;;;;;;;;;;;;;;;;;
2023/09/22 00:42:21;;;;;;;0.20;0.20;;;;;;;20.43;60.30;98912.50;5309816;26;34533;-91
2023/09/22 00:44:50;;;;;;;0.32;0.32;;;;;;;20.40;60.29;98904.81;5310563;26;20224;-92
2023/09/22 00:47:17;;;;;;;0.08;0.08;;;;;;;20.34;60.29;98913.22;5290868;26;20024;-93
2023/09/22 00:49:45;;;;;;;0.08;0.08;;;;;;;20.30;60.29;98917.94;5309445;26;20107;-92
2023/09/22 00:52:22;;;;;;;0.20;0.20;;;;;;;20.30;60.29;98917.94;5312978;26;20025;-92
2023/09/22 00:54:50;;;;;;;0.52;0.45;;;;;;;20.19;60.28;98924.16;5309100;26;20032;-91
2023/09/22 00:57:19;;;;;;;0.00;0.00;;;;;;;20.11;60.28;98926.63;5308863;26;20021;-90
2023/09/22 00:59:48;;;;;;;0.00;0.00;;;;;;;20.27;60.28;98922.66;5295249;26;20114;-91
2023/09/22 01:02:22;;;;;;;0.22;0.22;;;;;;;20.23;60.29;98927.37;5289576;26;20079;-92
2023/09/22 01:04:47;;;;;;;0.20;0.20;;;;;;;20.23;60.29;98925.56;5290392;26;20060;-93
2023/09/22 01:11:33;;;;;;;;;;;;;;;;;;;;;
2023/09/22 01:21:59;;;;;;;0.10;0.10;;;;;;;19.93;60.26;98930.78;5246824;27;20619;-93
2023/09/22 01:24:24;;;;;;;0.45;0.45;;;;;;;19.76;60.25;98934.00;5244614;27;20088;-92
2023/09/22 01:26:50;;;;;;;0.45;0.45;;;;;;;19.86;60.27;98929.59;5287404;26;20060;-92
2023/09/22 01:29:15;;;;;;;1.55;0.93;;;;;;;19.82;60.26;98920.28;5307114;26;20399;-93
2023/09/22 01:31:42;;;;;;;0.30;0.25;;;;;;;19.98;60.27;98914.56;5307193;26;20071;-90
2023/09/22 01:34:08;;;;;;;0.00;0.00;;;;;;;19.97;60.27;98911.06;5307219;26;20060;-93
2023/09/22 01:36:33;;;;;;;0.85;0.70;;;;;;;19.89;60.26;98917.00;5307223;26;20056;-93
2023/09/22 01:39:02;;;;;;;0.00;0.00;;;;;;;19.90;60.26;98921.31;5310018;26;20115;-92
2023/09/22 01:41:28;;;;;;;0.28;0.28;;;;;;;19.88;60.27;98917.97;5324412;26;20048;-93
2023/09/22 01:43:54;;;;;;;0.95;0.70;;;;;;;19.82;60.26;98921.09;5324684;26;20071;-90
2023/09/22 01:46:19;;;;;;;0.45;0.35;;;;;;;19.87;60.26;98926.87;5306222;26;20321;-90
2023/09/22 01:48:45;;;;;;;0.88;0.35;;;;;;;19.87;60.26;98932.16;5324142;26;20114;-91
2023/09/22 01:51:11;;;;;;;0.08;0.08;;;;;;;19.92;60.26;98929.97;5306807;26;20112;-90
2023/09/22 01:53:38;;;;;;;0.25;0.25;;;;;;;19.90;60.26;98931.06;5324537;26;20057;-92
2023/09/22 01:56:06;;;;;;;0.55;0.55;;;;;;;19.84;60.26;98929.75;5306790;26;20115;-92
2023/09/22 01:58:31;;;;;;;1.90;1.05;;;;;;;19.82;60.26;98922.91;5306621;26;20053;-92
2023/09/22 02:00:58;;;;;;;0.68;0.52;;;;;;;19.85;60.27;98928.78;5306343;26;20048;-92
2023/09/22 02:03:31;;;;;;;0.77;0.62;;;;;;;19.85;60.27;98928.78;5325490;26;20068;-94
2023/09/22 02:08:55;;;;;;;2.15;1.17;;;;;;;19.89;60.26;98930.22;5332836;26;20062;-92
2023/09/22 02:11:20;;;;;;;0.90;0.57;;;;;;;19.87;60.26;98921.59;5320082;26;20016;-92
2023/09/22 02:13:46;;;;;;;0.00;0.00;;;;;;;19.87;60.26;98920.72;5324215;26;20421;-93
2023/09/22 02:16:11;;;;;;;0.08;0.08;;;;;;;19.81;60.26;98915.94;5330701;26;20093;-94
2023/09/22 02:18:38;;;;;;;0.30;0.30;;;;;;;19.77;60.25;98930.38;5329309;26;20379;-93
2023/09/22 02:21:06;;;;;;;0.40;0.20;;;;;;;19.79;60.27;98926.66;5327960;26;20059;-94
2023/09/22 02:23:31;;;;;;;0.30;0.30;;;;;;;19.76;60.25;98929.53;5329133;26;20103;-93
2023/09/22 02:26:03;;;;;;;2.28;0.35;;;;;;;19.54;60.25;98927.84;5346427;26;20057;-93
2023/09/22 02:28:29;;;;;;;0.20;0.17;;;;;;;19.57;60.25;98917.03;5348931;26;20023;-94
2023/09/22 02:30:54;;;;;;;0.37;0.37;;;;;;;19.65;60.25;98923.50;5341495;26;20065;-93
2023/09/22 02:33:20;;;;;;;0.32;0.32;;;;;;;19.66;60.25;98911.97;5347332;26;20086;-94
2023/09/22 02:35:45;;;;;;;0.30;0.30;;;;;;;19.67;60.25;98919.75;5345520;26;20024;-93
2023/09/22 02:38:11;;;;;;;0.22;0.22;;;;;;;19.71;60.26;98910.63;5339342;26;20073;-93
2023/09/22 02:40:36;;;;;;;0.08;0.08;;;;;;;19.68;60.25;98910.87;5329829;26;20059;-92
2023/09/22 02:43:03;;;;;;;0.75;0.37;;;;;;;19.76;60.25;98912.88;5329506;26;20302;-91
2023/09/22 02:45:28;;;;;;;0.32;0.32;;;;;;;19.65;60.25;98903.22;5341531;26;20028;-91
2023/09/22 02:47:54;;;;;;;0.10;0.10;;;;;;;19.65;60.25;98899.72;5327580;26;20106;-92
2023/09/22 02:50:19;;;;;;;1.65;0.43;;;;;;;19.65;60.25;98897.09;5345929;26;20443;-91
2023/09/22 02:52:45;;;;;;;0.77;0.73;;;;;;;19.53;60.24;98899.75;5346137;26;20060;-90
2023/09/22 02:55:11;;;;;;;0.43;0.30;;;;;;;19.59;60.24;98899.25;5327051;26;20072;-92
2023/09/22 02:57:37;;;;;;;0.13;0.13;;;;;;;19.57;60.24;98901.19;5327686;26;20388;-92
2023/09/22 03:00:18;;;;;;;0.00;0.00;;;;;;;19.55;60.25;98903.09;5347053;26;20044;-92
2023/09/22 03:02:43;;;;;;;0.20;0.20;;;;;;;19.51;60.24;98899.03;5333099;26;20036;-91
2023/09/22 03:05:09;;;;;;;0.30;0.30;;;;;;;19.46;60.24;98897.72;5335599;26;20084;-91
2023/09/22 03:07:35;;;;;;;0.25;0.25;;;;;;;19.50;60.24;98899.16;5345973;26;20062;-91
2023/09/22 03:10:00;;;;;;;0.17;0.17;;;;;;;19.52;60.24;98898.06;5329558;26;20096;-90
2023/09/22 03:12:28;;;;;;;0.00;0.00;;;;;;;19.48;60.24;98903.72;5324515;26;20102;-92
2023/09/22 03:14:54;;;;;;;0.37;0.20;;;;;;;19.47;60.24;98891.47;5289726;26;20079;-92
2023/09/22 03:17:51;;;;;;;0.10;0.10;;;;;;;19.53;60.24;98893.63;5289532;26;20376;-93
2023/09/22 03:20:24;;;;;;;0.00;0.00;;;;;;;19.42;60.23;98891.88;5308113;26;20061;-94
2023/09/22 03:22:49;;;;;;;0.43;0.40;;;;;;;19.35;60.23;98895.09;5307871;26;20099;-93
2023/09/22 03:25:14;;;;;;;0.40;0.40;;;;;;;19.37;60.23;98890.53;5289337;26;20103;-92
2023/09/22 03:27:40;;;;;;;2.65;1.05;;;;;;;19.39;60.24;98889.44;5290756;26;20092;-94
2023/09/22 03:30:17;;;;;;;1.55;1.45;;;;;;;19.43;60.24;98895.34;5299729;26;20028;-93
2023/09/22 03:32:45;;;;;;;0.00;0.00;;;;;;;19.34;60.24;98881.09;5306774;26;20072;-93
2023/09/22 03:35:21;;;;;;;0.98;0.90;;;;;;;19.35;60.24;98892.47;5289882;26;20061;-93
2023/09/22 03:37:52;;;;;;;0.30;0.20;;;;;;;19.36;60.23;98907.34;5290960;26;20052;-94
2023/09/22 03:40:31;;;;;;;2.45;1.40;;;;;;;19.35;60.23;98901.22;5289367;26;20135;-94
2023/09/22 03:42:58;;;;;;;0.73;0.60;;;;;;;19.29;60.22;98896.47;5293756;26;20069;-92
2023/09/22 03:45:24;;;;;;;0.85;0.85;;;;;;;19.28;60.23;98890.34;5289675;26;20123;-93
2023/09/22 03:47:50;;;;;;;0.47;0.45;;;;;;;19.22;60.23;98888.22;5290533;26;20056;-93
2023/09/22 03:50:15;;;;;;;0.10;0.10;;;;;;;19.37;60.23;98891.38;5289528;26;20094;-92
2023/09/22 03:52:41;;;;;;;0.85;0.35;;;;;;;19.42;60.24;98883.94;5293498;26;20310;-91
2023/09/22 03:55:07;;;;;;;0.00;0.00;;;;;;;19.54;60.25;98882.97;5306000;26;20348;-91
2023/09/22 03:57:33;;;;;;;0.80;0.52;;;;;;;19.42;60.23;98880.47;5288173;26;20079;-91
2023/09/22 03:59:58;;;;;;;0.88;0.60;;;;;;;19.41;60.24;98881.44;5287941;26;20066;-93
2023/09/22 04:02:27;;;;;;;0.10;0.10;;;;;;;19.65;60.25;98884.72;5288780;26;20096;-91
2023/09/22 04:05:05;;;;;;;0.20;0.20;;;;;;;19.53;60.24;98891.84;5290110;26;20080;-93
2023/09/22 04:07:40;;;;;;;1.02;0.95;;;;;;;19.48;60.24;98880.81;5311058;26;20046;-92
2023/09/22 04:10:08;;;;;;;8.20;1.90;;;;;;;19.48;60.24;98893.16;5292013;26;20397;-92
2023/09/22 04:12:35;;;;;;;0.90;0.40;;;;;;;19.40;60.24;98885.00;5303542;26;20201;-96
2023/09/22 04:15:05;;;;;;;0.32;0.32;;;;;;;19.50;60.24;98893.88;5311977;26;20048;-93
2023/09/22 04:17:34;;;;;;;;;;;;;;;19.47;60.24;98896.75;5330543;26;20075;-91
2023/09/22 04:20:00;;;;;;;1.23;0.47;;;;;;;19.62;60.25;98891.06;5329604;26;19969;-92
2023/09/22 04:22:28;;;;;;;0.95;0.47;;;;;;;19.57;60.24;98895.06;5310041;26;20063;-91
2023/09/22 04:25:00;;;;;;;2.25;1.20;;;;;;;19.46;60.23;98895.09;5313402;26;20080;-96
2023/09/22 04:27:32;;;;;;;0.85;0.22;;;;;;;19.44;60.23;98897.03;5314453;26;20067;-94
2023/09/22 04:30:07;;;;;;;2.47;1.60;;;;;;;19.46;60.23;98889.81;5314439;26;20067;-94
2023/09/22 04:32:33;;;;;;;0.13;0.13;;;;;;;19.42;60.23;98896.31;5349451;26;20063;-96
2023/09/22 04:35:03;;;;;;;0.32;0.32;;;;;;;19.59;60.25;98891.31;5312932;26;20060;-96
2023/09/22 04:37:28;;;;;;;1.08;0.98;;;;;;;19.51;60.23;98903.47;5330794;26;20066;-95
2023/09/22 04:39:54;;;;;;;0.45;0.40;;;;;;;19.49;60.24;98906.22;5331455;26;20044;-93
2023/09/22 04:42:22;;;;;;;0.05;0.05;;;;;;;19.49;60.24;98910.66;5312005;26;20116;-94
2023/09/22 04:44:52;;;;;;;0.70;0.68;;;;;;;19.60;60.24;98911.47;5311875;26;20080;-92
2023/09/22 04:47:17;;;;;;;0.40;0.40;;;;;;;19.47;60.24;98915.25;5348268;26;20056;-92
2023/09/22 04:49:43;;;;;;;0.37;0.37;;;;;;;19.59;60.24;98912.44;5328988;26;20052;-92
2023/09/22 04:52:23;;;;;;;0.22;0.22;;;;;;;19.55;60.24;98911.03;5332899;26;20079;-94
2023/09/22 04:55:06;;;;;;;;;;;;;;;;;;;;;
2023/09/22 04:57:32;;;;;;;4.97;2.30;;;;;;;19.69;60.24;98927.56;5333674;26;34929;-96
2023/09/22 04:59:59;;;;;;;0.95;0.95;;;;;;;19.75;60.25;98914.66;5313485;26;20428;-96
2023/09/22 05:02:25;;;;;;;0.40;0.30;;;;;;;19.68;60.24;98923.22;5314136;26;20033;-96
2023/09/22 05:04:50;;;;;;;0.70;0.70;;;;;;;19.76;60.25;98916.34;5313302;26;20063;-96
2023/09/22 05:07:16;;;;;;;1.77;0.80;;;;;;;19.83;60.25;98921.94;5313664;26;20056;-96
2023/09/22 05:09:43;;;;;;;0.30;0.20;;;;;;;19.79;60.26;98928.44;5313563;26;20111;-96
2023/09/22 05:12:09;;;;;;;0.20;0.20;;;;;;;19.80;60.26;98924.84;5317030;26;20076;-95
2023/09/22 05:14:37;;;;;;;0.80;0.73;;;;;;;19.82;60.25;98922.91;5313394;26;20032;-96
2023/09/22 05:17:02;;;;;;;2.75;1.55;;;;;;;19.88;60.26;98933.00;5325153;26;20024;-94
2023/09/22 05:19:29;;;;;;;0.47;0.47;;;;;;;19.94;60.27;98935.09;5328065;26;20054;-94
2023/09/22 05:21:55;;;;;;;0.43;0.32;;;;;;;20.05;60.27;98927.09;5316862;26;20151;-95
2023/09/22 05:27:24;;;;;;;0.25;0.25;;;;;;;20.19;60.27;98918.87;5392362;26;20082;-96
2023/09/22 05:29:52;;;;;;;0.57;0.57;;;;;;;20.20;60.27;98925.81;5336680;26;20738;-96
2023/09/22 05:32:19;;;;;;;0.17;0.17;;;;;;;20.23;60.27;98924.72;5356101;26;20103;-95
2023/09/22 05:34:44;;;;;;;1.55;1.35;;;;;;;20.31;60.28;98914.31;5335405;26;20069;-95
2023/09/22 05:37:11;;;;;;;0.22;0.22;;;;;;;20.43;60.29;98908.03;5334880;26;20444;-96
2023/09/22 05:39:38;;;;;;;1.45;1.35;;;;;;;20.42;60.29;98909.00;5335000;26;20049;-96
2023/09/22 05:42:04;;;;;;;2.12;1.45;;;;;;;20.68;60.30;98906.75;5335555;26;20052;-96
2023/09/22 05:44:32;;;;;;;1.00;0.70;;;;;;;20.88;60.31;98907.66;5334951;26;20060;-96
2023/09/22 05:46:58;;;;;;;0.68;0.65;;;;;;;21.07;60.32;98904.25;5335450;26;20065;-96
2023/09/22 05:49:24;;;;;;;1.45;0.75;;;;;;;21.10;60.32;98910.09;5337264;26;20067;-96
2023/09/22 05:51:49;;;;;;;0.68;0.47;;;;;;;21.08;60.31;98909.41;5330724;26;20092;-96
2023/09/22 05:54:15;;;;;;;0.88;0.70;;;;;;;21.20;60.33;98911.91;5349729;26;20060;-96
2023/09/22 05:56:41;;;;;;;1.12;1.05;;;;;;;21.40;60.33;98909.19;5349303;26;20092;-96
2023/09/22 05:59:07;;;;;;;0.10;0.10;;;;;;;21.24;60.32;98918.63;5350144;26;20090;-96
2023/09/22 06:01:37;;;;;;;1.45;1.35;;;;;;;21.48;60.33;98911.13;5349577;26;20057;-96
2023/09/22 06:04:05;;;;;;;3.58;0.82;;;;;;;21.49;60.34;98920.75;5350700;26;20075;-95
2023/09/22 06:06:34;;;;;;;0.60;0.60;;;;;;;21.53;60.34;98924.81;5350488;26;20020;-96
2023/09/22 06:08:59;;;;;;;0.28;0.28;;;;;;;21.59;60.35;98924.25;5351142;26;20661;-96
2023/09/22 06:11:25;;;;;;;1.58;0.43;;;;;;;21.88;60.36;98920.75;5351725;26;20080;-96
2023/09/22 06:13:51;;;;;;;0.55;0.55;;;;;;;21.97;60.37;98922.56;5349991;26;20061;-96
2023/09/22 06:16:19;;;;;;;0.70;0.70;;;;;;;22.09;60.37;98923.28;5331395;26;20084;-94
2023/09/22 06:18:45;;;;;;;0.55;0.55;;;;;;;22.29;60.38;98922.28;5350888;26;20062;-96
2023/09/22 06:21:11;;;;;;;0.65;0.65;;;;;;;22.43;60.39;98926.25;5348815;26;20080;-94
2023/09/22 06:23:36;;;;;;;2.30;0.75;;;;;;;22.55;60.39;98927.78;5350563;26;20060;-95
2023/09/22 06:26:09;;;;;;;1.02;0.93;;;;;;;22.73;60.41;98920.72;5352451;26;20112;-94
2023/09/22 06:28:35;;;;;;;0.22;0.22;;;;;;;22.95;60.41;98914.25;5333306;26;20063;-94
2023/09/22 06:31:01;;;;;;;1.55;0.80;;;;;;;23.16;60.42;98921.91;5349326;26;20079;-96
2023/09/22 06:33:38;;;;;;;2.10;1.75;;;;;;;23.27;60.44;98927.88;5311249;26;20078;-95
2023/09/22 06:36:06;;;;;;;4.10;1.67;;;;;;;23.34;60.43;98927.25;5350382;26;20064;-95
2023/09/22 06:38:33;;;;;;;0.45;0.35;;;;;;;23.44;60.44;98930.69;5312070;26;20067;-95
2023/09/22 06:41:02;;;;;;;0.35;0.35;;;;;;;23.42;60.43;98928.19;5312129;26;20056;-96
2023/09/22 06:43:27;;;;;;;1.33;0.93;;;;;;;23.53;60.44;98941.25;5313377;26;20047;-96
2023/09/22 06:45:58;;;;;;;0.43;0.40;;;;;;;23.39;60.43;98943.56;5349754;26;20060;-96
2023/09/22 06:48:27;;;;;;;0.17;0.17;;;;;;;23.41;60.44;98952.22;5313816;26;20129;-96
2023/09/22 06:50:53;;;;;;;1.40;1.10;;;;;;;23.71;60.45;98937.81;5353367;26;20060;-96
2023/09/22 06:53:19;;;;;;;0.30;0.30;;;;;;;23.63;60.45;98935.88;5349619;26;20060;-95
2023/09/22 06:56:13;;;;;;;0.40;0.40;;;;;;;23.69;60.45;98934.47;5349368;26;20076;-96
2023/09/22 06:58:40;;;;;;;1.75;0.93;;;;;;;23.66;60.44;98935.59;5353709;26;20048;-95
2023/09/22 07:01:09;;;;;;;3.30;0.45;;;;;;;23.78;60.46;98934.37;5348438;26;20075;-96
2023/09/22 07:03:43;;;;;;;0.63;0.40;;;;;;;23.69;60.45;98940.63;5330580;26;20027;-95
2023/09/22 07:06:13;;;;;;;0.75;0.75;;;;;;;23.85;60.46;98950.53;5349931;26;20053;-95
2023/09/22 07:08:41;;;;;;;0.68;0.68;;;;;;;24.02;60.47;98949.69;5331998;26;20732;-96
2023/09/22 07:11:18;;;;;;;2.78;1.52;;;;;;;24.11;60.47;98954.06;5347964;26;20078;-96
2023/09/22 07:13:44;;;;;;;1.12;0.95;;;;;;;24.09;60.47;98952.56;5314244;26;20119;-95
2023/09/22 07:16:09;;;;;;;1.00;0.95;;;;;;;24.05;60.47;98961.84;5347034;26;20060;-95
2023/09/22 07:18:35;;;;;;;4.32;1.67;;;;;;;24.14;60.48;98952.97;5310763;26;20103;-96
2023/09/22 07:21:06;;;;;;;1.95;1.75;;;;;;;24.08;60.47;98957.03;5347468;26;20064;-95
2023/09/22 07:23:36;;;;;;;0.35;0.35;;;;;;;24.27;60.48;98950.72;5310368;26;20755;-96
2023/09/22 07:26:03;;;;;;;0.75;0.32;;;;;;;24.26;60.48;98935.75;5347120;26;20456;-96
2023/09/22 07:28:34;;;;;;;1.85;0.90;;;;;;;24.46;60.50;98945.22;5346921;26;20048;-96
2023/09/22 07:31:13;;;;;;;0.85;0.85;;;;;;;24.57;60.50;98936.13;5329999;26;20068;-96
2023/09/22 07:33:43;;;;;;;4.65;1.25;;;;;;;24.66;60.50;98937.84;5348457;26;20083;-96
2023/09/22 07:36:15;;;;;;;1.45;1.02;;;;;;;24.68;60.51;98943.84;5311153;26;20796;-95
2023/09/22 07:38:44;;;;;;;1.00;0.70;;;;;;;24.69;60.51;98955.34;5347522;26;20063;-96
2023/09/22 07:41:17;;;;;;;1.02;0.90;;;;;;;24.86;60.52;98961.59;5347332;26;20047;-95
2023/09/22 07:43:46;;;;;;;0.43;0.43;;;;;;;24.82;60.51;98961.03;5346897;26;20063;-96
2023/09/22 07:46:16;;;;;;;0.37;0.37;;;;;;;24.94;60.52;98967.78;5347453;26;20056;-95
2023/09/22 07:48:42;;;;;;;0.65;0.20;;;;;;;25.01;60.53;98970.66;5347138;26;20110;-96
2023/09/22 07:51:07;;;;;;;1.33;1.23;;;;;;;25.12;60.53;98978.38;5346997;26;20068;-96
2023/09/22 07:53:33;;;;;;;0.37;0.37;;;;;;;25.02;60.53;98969.66;5347222;26;20075;-96
2023/09/22 07:56:01;;;;;;;1.70;1.60;;;;;;;25.20;60.53;98969.56;5347494;26;20053;-95
2023/09/22 07:58:30;;;;;;;0.82;0.30;;;;;;;25.31;60.54;98964.75;5348591;26;20044;-96
2023/09/22 08:00:58;;;;;;;1.05;0.60;;;;;;;25.37;60.54;98963.31;5311632;26;20128;-95
2023/09/22 08:03:27;;;;;;;0.65;0.65;;;;;;;25.41;60.55;98964.66;5353945;26;20082;-96
2023/09/22 08:05:55;;;;;;;6.28;2.80;;;;;;;25.29;60.54;98963.25;5365526;26;20039;-95
2023/09/22 08:08:26;;;;;;;0.40;0.40;;;;;;;25.48;60.55;98965.66;5363535;26;20028;-96
2023/09/22 08:10:56;;;;;;;0.70;0.70;;;;;;;25.61;60.55;98963.38;5338144;26;20051;-96
2023/09/22 08:13:26;;;;;;;0.57;0.57;;;;;;;25.55;60.56;98960.50;5350803;26;20627;-96
2023/09/22 08:16:17;;;;;;;;;;;;;;;;;;;;;
2023/09/22 08:18:43;;;;;;;0.43;0.43;;;;;;;25.93;60.58;98967.91;5348208;26;35033;-96
2023/09/22 08:21:22;;;;;;;2.33;1.17;;;;;;;25.92;60.57;98965.41;5346968;26;20053;-96
2023/09/22 08:23:51;;;;;;;1.55;1.17;;;;;;;26.05;60.58;98970.28;5330090;26;20131;-95
2023/09/22 08:26:43;;;;;;;0.43;0.43;;;;;;;26.25;60.58;98966.25;5310846;26;20064;-96
2023/09/22 08:29:11;;;;;;;3.65;0.77;;;;;;;26.54;60.60;98961.25;5346702;26;20031;-95
2023/09/22 08:31:36;;;;;;;0.55;0.43;;;;;;;26.57;60.61;98958.25;5346597;26;20060;-96
2023/09/22 08:34:43;;;;;;;;;;;;;;;;;;;;;
2023/09/22 08:37:21;;;;;;;0.30;0.30;;;;;;;27.20;60.64;98968.03;5351303;26;36989;-96
2023/09/22 08:40:05;;;;;;;0.20;0.20;;;;;;;27.50;60.64;98965.56;5330605;26;20060;-95
2023/09/22 08:42:33;;;;;;;0.20;0.20;;;;;;;27.71;60.66;98968.47;5347816;26;20060;-96
2023/09/22 08:45:06;;;;;;;1.23;0.73;;;;;;;27.92;60.67;98965.16;5311164;26;20031;-96
2023/09/22 08:47:38;;;;;;;7.85;1.42;;;;;;;28.21;60.68;98960.91;5346810;26;20060;-95
2023/09/22 08:50:07;;;;;;;0.68;0.68;;;;;;;28.38;60.69;98965.09;5347118;26;20052;-96
2023/09/22 08:58:52;;;;;;;0.25;0.20;;;;;;;29.22;60.73;98950.47;5349040;26;20048;-96
2023/09/22 09:05:39;;;;;;;2.20;0.47;;;;;;;29.69;60.76;98951.84;5275553;27;20148;-95
2023/09/22 09:08:36;;;;;;;;;;;;;;;;;;;;;
2023/09/22 09:11:24;;;;;;;;;;;;;;;;;;;;;
2023/09/22 09:14:02;;;;;;;3.72;1.98;;;;;;;29.91;60.77;98940.09;5286231;27;36285;-95
2023/09/22 09:16:33;;;;;;;2.87;0.73;;;;;;;30.25;60.79;98925.94;5303049;26;20079;-95
2023/09/22 09:19:15;;;;;;;0.40;0.40;;;;;;;30.54;60.81;98937.50;5346717;26;20127;-96
2023/09/22 09:22:08;;;;;;;0.00;0.00;;;;;;;30.73;60.81;98936.81;5347496;26;20140;-94
2023/09/22 09:24:38;;;;;;;7.93;1.30;;;;;;;30.70;60.82;98926.47;5344270;26;20166;-95
2023/09/22 09:27:21;;;;;;;0.60;0.60;;;;;;;30.74;60.81;98922.34;5313288;26;20075;-96
2023/09/22 09:30:06;;;;;;;1.02;1.02;;;;;;;30.81;60.82;98917.88;5347604;26;20067;-95
2023/09/22 09:32:32;;;;;;;0.10;0.10;;;;;;;30.78;60.82;98918.25;5335237;26;20055;-96
2023/09/22 09:34:58;;;;;;;12.25;0.93;;;;;;;30.78;60.82;98920.94;5347106;26;20056;-95
2023/09/22 09:37:26;;;;;;;3.60;2.28;;;;;;;30.89;60.82;98911.47;5348084;26;20081;-96
2023/09/22 09:39:52;;;;;;;0.47;0.47;;;;;;;30.82;60.82;98916.84;5347805;26;20187;-96
2023/09/22 09:42:22;;;;;;;8.85;0.57;;;;;;;30.82;60.82;98908.78;5310647;26;20074;-96
2023/09/22 09:44:53;;;;;;;0.30;0.30;;;;;;;30.92;60.82;98921.00;5346630;26;20076;-96
2023/09/22 09:47:25;;;;;;;0.20;0.20;;;;;;;30.94;60.83;98911.72;5310513;26;20064;-96
2023/09/22 09:49:52;;;;;;;0.57;0.57;;;;;;;30.96;60.83;98906.13;5346774;26;20090;-95
2023/09/22 09:52:30;;;;;;;0.68;0.68;;;;;;;30.95;60.83;98897.22;5346481;26;20427;-95
2023/09/22 09:55:12;;;;;;;0.62;0.62;;;;;;;31.06;60.83;98893.16;5346194;26;20043;-96
2023/09/22 09:57:44;;;;;;;1.02;0.30;;;;;;;31.33;60.85;98896.78;5346490;26;20082;-94
2023/09/22 10:00:19;;;;;;;0.80;0.80;;;;;;;31.48;60.86;98894.75;5309518;26;20095;-94
2023/09/22 10:02:48;;;;;;;1.00;0.82;;;;;;;31.50;60.86;98894.56;5310530;26;20080;-94
2023/09/22 10:05:17;;;;;;;;;;;;;;;31.27;60.85;98885.00;5327358;26;20087;-91
2023/09/22 10:07:44;;;;;;;10.98;1.37;;;;;;;31.15;60.84;98894.63;5327524;26;19979;-93
2023/09/22 10:10:15;;;;;;;0.70;0.68;;;;;;;31.22;60.84;98891.97;5326658;26;20060;-92
2023/09/22 10:12:50;;;;;;;0.47;0.40;;;;;;;31.46;60.85;98886.88;5327857;26;20513;-92
2023/09/22 10:15:21;;;;;;;0.20;0.20;;;;;;;31.83;60.88;98875.78;5347000;26;20044;-93
2023/09/22 10:17:53;;;;;;;0.90;0.22;;;;;;;32.12;60.90;98871.81;5345856;26;20075;-92
2023/09/22 10:20:19;;;;;;;0.52;0.30;;;;;;;32.21;60.90;98867.91;5308793;26;20359;-93
2023/09/22 10:22:53;;;;;;;0.47;0.47;;;;;;;32.28;60.89;98861.47;5344892;26;20090;-92
2023/09/22 10:25:20;;;;;;;0.00;0.00;;;;;;;32.20;60.89;98871.63;5346008;26;20051;-93
2023/09/22 10:28:02;;;;;;;1.17;1.08;;;;;;;32.18;60.89;98868.28;5307983;26;20070;-90
2023/09/22 10:30:43;;;;;;;5.43;1.05;;;;;;;32.33;60.90;98872.44;5326983;26;20484;-90
2023/09/22 10:33:24;;;;;;;0.32;0.32;;;;;;;32.64;60.92;98863.66;5365329;26;20341;-91
2023/09/22 10:35:49;;;;;;;0.37;0.37;;;;;;;32.78;60.93;98858.22;5365218;26;20036;-91
2023/09/22 10:38:14;;;;;;;0.32;0.32;;;;;;;32.98;60.93;98864.38;5345055;26;20055;-91
2023/09/22 10:40:58;;;;;;;0.70;0.57;;;;;;;33.14;60.94;98853.13;5326348;26;20059;-90
2023/09/22 10:43:24;;;;;;;1.67;1.15;;;;;;;33.28;60.95;98854.66;5364616;26;20049;-92
2023/09/22 10:45:51;;;;;;;1.45;0.73;;;;;;;33.34;60.95;98855.69;5344556;26;20070;-92
2023/09/22 10:48:17;;;;;;;0.00;0.00;;;;;;;33.35;60.95;98843.03;5344967;26;20122;-92
2023/09/22 10:50:43;;;;;;;0.22;0.22;;;;;;;33.23;60.94;98853.69;5364753;26;20064;-90
2023/09/22 10:53:08;;;;;;;1.55;0.95;;;;;;;33.12;60.94;98852.47;5344590;26;20429;-93
2023/09/22 10:55:34;;;;;;;0.10;0.10;;;;;;;33.14;60.94;98844.19;5345093;26;20084;-91
2023/09/22 10:58:01;;;;;;;1.35;0.95;;;;;;;33.16;60.96;98842.94;5348501;26;20032;-91
2023/09/22 11:00:27;;;;;;;0.00;0.00;;;;;;;32.96;60.94;98856.53;5361319;26;20072;-92
2023/09/22 11:02:54;;;;;;;0.05;0.05;;;;;;;33.05;60.94;98851.69;5362170;26;20051;-91
2023/09/22 11:05:19;;;;;;;0.30;0.30;;;;;;;32.91;60.93;98842.03;5349432;26;20100;-90
2023/09/22 11:07:47;;;;;;;0.80;0.75;;;;;;;32.97;60.94;98838.47;5347061;26;20198;-93
2023/09/22 11:10:28;;;;;;;0.25;0.25;;;;;;;33.10;60.95;98841.06;5345125;26;20060;-93
2023/09/22 11:12:54;;;;;;;0.70;0.40;;;;;;;33.06;60.94;98841.72;5326516;26;20044;-92
2023/09/22 11:15:20;;;;;;;0.40;0.32;;;;;;;32.86;60.94;98842.66;5344953;26;20062;-92
2023/09/22 11:17:46;;;;;;;0.40;0.40;;;;;;;32.98;60.94;98840.13;5343962;26;20073;-90
2023/09/22 11:20:21;;;;;;;0.05;0.05;;;;;;;32.86;60.94;98837.25;5344914;26;20078;-91
2023/09/22 11:22:47;;;;;;;1.65;0.65;;;;;;;32.93;60.94;98846.16;5346715;26;20048;-90
2023/09/22 11:25:12;;;;;;;0.10;0.10;;;;;;;32.70;60.93;98839.59;5365798;26;20095;-92
2023/09/22 11:27:47;;;;;;;0.10;0.10;;;;;;;32.73;60.93;98833.78;5347126;26;20108;-92
2023/09/22 11:30:14;;;;;;;6.43;1.27;;;;;;;32.88;60.94;98832.47;5347161;26;20077;-92
2023/09/22 11:32:41;;;;;;;5.35;1.08;;;;;;;32.78;60.94;98828.56;5347472;26;20107;-91
2023/09/22 11:35:07;;;;;;;0.08;0.08;;;;;;;32.84;60.94;98836.66;5328531;26;20432;-91
2023/09/22 11:37:32;;;;;;;0.85;0.55;;;;;;;32.73;60.93;98839.19;5346550;26;20056;-91
2023/09/22 11:39:57;;;;;;;0.90;0.73;;;;;;;32.75;60.94;98837.91;5346807;26;20333;-92
2023/09/22 11:42:23;;;;;;;0.40;0.40;;;;;;;32.91;60.95;98832.09;5346496;26;20099;-91
2023/09/22 11:45:03;;;;;;;0.13;0.13;;;;;;;32.98;60.94;98832.03;5347390;26;20049;-93
2023/09/22 11:47:28;;;;;;;2.10;0.98;;;;;;;33.00;60.95;98838.03;5328626;26;20419;-92
2023/09/22 11:49:54;;;;;;;0.52;0.52;;;;;;;32.80;60.93;98842.69;5346974;26;20060;-90
2023/09/22 11:52:31;;;;;;;1.50;0.65;;;;;;;32.79;60.94;98843.69;5347144;26;20072;-89
2023/09/22 11:54:57;;;;;;;0.62;0.57;;;;;;;32.82;60.93;98840.59;5347184;26;20058;-92
2023/09/22 11:57:22;;;;;;;0.47;0.47;;;;;;;32.69;60.93;98843.34;5367447;26;20048;-92
2023/09/22 12:00:07;;;;;;;0.00;0.00;;;;;;;32.76;60.94;98844.13;5347303;26;20060;-93
2023/09/22 12:02:35;;;;;;;0.17;0.17;;;;;;;32.80;60.93;98842.69;5329608;26;20063;-93
2023/09/22 12:05:01;;;;;;;2.22;0.62;;;;;;;32.64;60.93;98850.19;5329199;26;20044;-92
2023/09/22 12:07:36;;;;;;;0.45;0.43;;;;;;;32.58;60.92;98851.03;5347469;26;20416;-93
2023/09/22 12:10:01;;;;;;;1.08;0.62;;;;;;;32.65;60.93;98845.62;5334832;26;20074;-93
2023/09/22 12:12:26;;;;;;;0.55;0.43;;;;;;;32.77;60.94;98846.62;5347330;26;20044;-92
2023/09/22 12:14:54;;;;;;;0.55;0.55;;;;;;;32.88;60.94;98845.97;5347139;26;20036;-93
2023/09/22 12:17:25;;;;;;;0.05;0.00;;;;;;;32.96;60.94;98850.31;5347600;26;20064;-94
2023/09/22 12:19:50;;;;;;;2.62;1.37;;;;;;;33.07;60.94;98854.19;5329299;26;20426;-92
2023/09/22 12:22:17;;;;;;;0.57;0.47;;;;;;;32.93;60.94;98848.88;5347171;26;20048;-93
2023/09/22 12:24:46;;;;;;;3.62;0.57;;;;;;;32.91;60.95;98853.66;5347275;26;20061;-92
2023/09/22 12:27:11;;;;;;;1.85;0.93;;;;;;;32.81;60.93;98852.44;5347509;26;20102;-92
2023/09/22 12:29:37;;;;;;;0.20;0.17;;;;;;;32.93;60.94;98853.44;5347297;26;20060;-92
2023/09/22 12:32:07;;;;;;;0.43;0.43;;;;;;;33.00;60.95;98866.88;5347780;26;20432;-92
2023/09/22 12:34:36;;;;;;;0.73;0.57;;;;;;;32.90;60.94;98859.25;5348561;26;20043;-92
2023/09/22 12:37:02;;;;;;;1.80;0.70;;;;;;;32.92;60.94;98863.38;5347185;26;20064;-91
2023/09/22 12:39:27;;;;;;;0.20;0.20;;;;;;;33.04;60.95;98852.75;5367303;26;20119;-91
2023/09/22 12:41:53;;;;;;;0.98;0.62;;;;;;;32.98;60.96;98853.59;5364949;26;20067;-89